sensor_id;sensor_type;location;lat;lon;timestamp;pressure;altitude;pressure_sealevel;temperature;humidity
44457;BME280;30159;49.316;8.558;2022-12-20T00:02:12;100956.09;;;5.43;100.00
44457;BME280;30159;49.316;8.558;2022-12-20T00:04:38;100937.81;;;5.40;100.00
44457;BME280;30159;49.316;8.558;2022-12-20T00:07:05;100943.31;;;5.45;100.00
44457;BME280;30159;49.316;8.558;2022-12-20T00:09:31;100932.63;;;5.57;100.00
44457;BME280;30159;49.316;8.558;2022-12-20T00:11:58;100922.47;;;5.59;100.00
44457;BME280;30159;49.316;8.558;2022-12-20T00:14:25;100927.72;;;5.66;100.00
44457;BME280;30159;49.316;8.558;2022-12-20T00:16:52;100910.63;;;5.55;100.00
44457;BME280;30159;49.316;8.558;2022-12-20T00:19:19;100920.63;;;5.60;100.00
44457;BME280;30159;49.316;8.558;2022-12-20T00:21:45;100917.94;;;5.72;100.00
44457;BME280;30159;49.316;8.558;2022-12-20T00:24:12;100912.22;;;5.80;100.00
44457;BME280;30159;49.316;8.558;2022-12-20T00:26:38;100906.44;;;5.83;100.00
44457;BME280;30159;49.316;8.558;2022-12-20T00:29:05;100928.16;;;5.86;100.00
44457;BME280;30159;49.316;8.558;2022-12-20T00:31:33;100932.13;;;5.84;100.00
44457;BME280;30159;49.316;8.558;2022-12-20T00:34:00;100872.72;;;5.46;100.00
44457;BME280;30159;49.316;8.558;2022-12-20T00:36:28;100910.72;;;5.84;100.00
44457;BME280;30159;49.316;8.558;2022-12-20T00:38:57;100915.13;;;5.90;100.00
44457;BME280;30159;49.316;8.558;2022-12-20T00:41:25;100916.66;;;5.86;100.00
44457;BME280;30159;49.316;8.558;2022-12-20T00:43:52;100918.84;;;5.89;100.00
44457;BME280;30159;49.316;8.558;2022-12-20T00:46:20;100914.19;;;5.84;100.00
44457;BME280;30159;49.316;8.558;2022-12-20T00:48:49;100909.66;;;5.85;100.00
44457;BME280;30159;49.316;8.558;2022-12-20T00:51:18;100905.94;;;5.86;100.00
44457;BME280;30159;49.316;8.558;2022-12-20T00:53:46;100909.19;;;5.88;100.00
44457;BME280;30159;49.316;8.558;2022-12-20T00:56:13;100909.91;;;5.95;100.00
44457;BME280;30159;49.316;8.558;2022-12-20T00:58:41;100910.25;;;5.99;100.00
44457;BME280;30159;49.316;8.558;2022-12-20T01:01:15;100910.03;;;6.00;100.00
44457;BME280;30159;49.316;8.558;2022-12-20T01:03:42;100915.47;;;6.05;100.00
44457;BME280;30159;49.316;8.558;2022-12-20T01:06:10;100863.50;;;5.66;100.00
44457;BME280;30159;49.316;8.558;2022-12-20T01:08:37;100918.72;;;6.07;100.00
44457;BME280;30159;49.316;8.558;2022-12-20T01:11:06;100922.47;;;6.06;100.00
44457;BME280;30159;49.316;8.558;2022-12-20T01:13:34;100918.41;;;6.04;100.00
44457;BME280;30159;49.316;8.558;2022-12-20T01:16:03;100909.53;;;6.03;100.00
44457;BME280;30159;49.316;8.558;2022-12-20T01:18:30;100913.75;;;5.99;100.00
44457;BME280;30159;49.316;8.558;2022-12-20T01:21:00;100903.06;;;5.99;100.00
44457;BME280;30159;49.316;8.558;2022-12-20T01:23:28;100910.50;;;5.97;100.00
44457;BME280;30159;49.316;8.558;2022-12-20T01:25:57;100911.66;;;5.78;100.00
44457;BME280;30159;49.316;8.558;2022-12-20T01:28:23;100910.50;;;5.74;100.00
44457;BME280;30159;49.316;8.558;2022-12-20T01:30:50;100904.56;;;5.72;100.00
44457;BME280;30159;49.316;8.558;2022-12-20T01:33:16;100898.75;;;5.75;100.00
44457;BME280;30159;49.316;8.558;2022-12-20T01:35:53;100897.69;;;5.76;100.00
44457;BME280;30159;49.316;8.558;2022-12-20T01:38:20;100893.38;;;5.86;100.00
44457;BME280;30159;49.316;8.558;2022-12-20T01:40:48;100897.44;;;6.01;100.00
44457;BME280;30159;49.316;8.558;2022-12-20T01:43:17;100889.84;;;6.09;100.00
44457;BME280;30159;49.316;8.558;2022-12-20T01:45:44;100890.13;;;5.96;100.00
44457;BME280;30159;49.316;8.558;2022-12-20T01:48:12;100878.81;;;5.82;100.00
44457;BME280;30159;49.316;8.558;2022-12-20T01:50:40;100909.09;;;6.06;100.00
44457;BME280;30159;49.316;8.558;2022-12-20T01:53:07;100902.00;;;6.00;100.00
44457;BME280;30159;49.316;8.558;2022-12-20T01:55:35;100895.56;;;6.01;100.00
44457;BME280;30159;49.316;8.558;2022-12-20T01:58:05;100896.53;;;5.95;100.00
44457;BME280;30159;49.316;8.558;2022-12-20T02:00:33;100892.91;;;6.01;100.00
44457;BME280;30159;49.316;8.558;2022-12-20T02:03:04;100858.09;;;5.89;100.00
44457;BME280;30159;49.316;8.558;2022-12-20T02:05:34;100893.69;;;6.14;100.00
44457;BME280;30159;49.316;8.558;2022-12-20T02:08:01;100893.47;;;6.03;100.00
44457;BME280;30159;49.316;8.558;2022-12-20T02:10:34;100902.00;;;6.00;100.00
44457;BME280;30159;49.316;8.558;2022-12-20T02:13:15;100862.63;;;5.89;100.00
44457;BME280;30159;49.316;8.558;2022-12-20T02:15:51;100869.84;;;6.00;100.00
44457;BME280;30159;49.316;8.558;2022-12-20T02:18:21;100864.41;;;5.95;100.00
44457;BME280;30159;49.316;8.558;2022-12-20T02:21:12;100856.38;;;5.95;100.00
44457;BME280;30159;49.316;8.558;2022-12-20T02:24:18;100849.72;;;5.86;100.00
44457;BME280;30159;49.316;8.558;2022-12-20T02:27:14;100844.97;;;5.88;100.00
44457;BME280;30159;49.316;8.558;2022-12-20T02:30:16;100845.28;;;5.91;100.00
44457;BME280;30159;49.316;8.558;2022-12-20T02:32:47;100838.09;;;5.80;100.00
44457;BME280;30159;49.316;8.558;2022-12-20T02:35:20;100836.94;;;5.88;100.00
44457;BME280;30159;49.316;8.558;2022-12-20T02:37:51;100838.66;;;5.94;100.00
44457;BME280;30159;49.316;8.558;2022-12-20T02:40:22;100818.09;;;5.95;100.00
44457;BME280;30159;49.316;8.558;2022-12-20T02:42:52;100814.69;;;5.99;100.00
44457;BME280;30159;49.316;8.558;2022-12-20T02:45:25;100810.47;;;6.03;100.00
44457;BME280;30159;49.316;8.558;2022-12-20T02:47:54;100811.63;;;6.07;100.00
44457;BME280;30159;49.316;8.558;2022-12-20T02:50:31;100814.78;;;6.04;100.00
44457;BME280;30159;49.316;8.558;2022-12-20T02:53:00;100807.44;;;6.11;100.00
44457;BME280;30159;49.316;8.558;2022-12-20T02:55:38;100809.78;;;5.96;100.00
44457;BME280;30159;49.316;8.558;2022-12-20T02:58:11;100818.19;;;5.88;100.00
44457;BME280;30159;49.316;8.558;2022-12-20T03:00:44;100820.16;;;6.04;100.00
44457;BME280;30159;49.316;8.558;2022-12-20T03:03:13;100820.31;;;6.15;100.00
44457;BME280;30159;49.316;8.558;2022-12-20T03:05:50;100749.09;;;5.73;100.00
44457;BME280;30159;49.316;8.558;2022-12-20T03:08:18;100820.91;;;6.17;100.00
44457;BME280;30159;49.316;8.558;2022-12-20T03:10:44;100791.31;;;5.95;100.00
44457;BME280;30159;49.316;8.558;2022-12-20T03:13:11;100822.06;;;6.21;100.00
44457;BME280;30159;49.316;8.558;2022-12-20T03:15:37;100813.34;;;6.14;100.00
44457;BME280;30159;49.316;8.558;2022-12-20T03:18:05;100706.00;;;5.58;100.00
44457;BME280;30159;49.316;8.558;2022-12-20T03:20:32;100810.84;;;6.24;100.00
44457;BME280;30159;49.316;8.558;2022-12-20T03:22:58;100817.28;;;6.23;100.00
44457;BME280;30159;49.316;8.558;2022-12-20T03:25:25;100827.28;;;6.27;100.00
44457;BME280;30159;49.316;8.558;2022-12-20T03:27:52;100831.38;;;6.18;100.00
44457;BME280;30159;49.316;8.558;2022-12-20T03:30:18;100828.56;;;6.25;100.00
44457;BME280;30159;49.316;8.558;2022-12-20T03:32:45;100827.41;;;6.21;100.00
44457;BME280;30159;49.316;8.558;2022-12-20T03:35:13;100828.06;;;6.28;100.00
44457;BME280;30159;49.316;8.558;2022-12-20T03:37:39;100769.78;;;5.78;100.00
44457;BME280;30159;49.316;8.558;2022-12-20T03:40:07;100822.81;;;6.04;100.00
44457;BME280;30159;49.316;8.558;2022-12-20T03:42:34;100822.16;;;5.97;100.00
44457;BME280;30159;49.316;8.558;2022-12-20T03:45:02;100828.97;;;6.05;100.00
44457;BME280;30159;49.316;8.558;2022-12-20T03:47:28;100826.66;;;5.97;100.00
44457;BME280;30159;49.316;8.558;2022-12-20T03:49:55;100827.03;;;6.00;100.00
44457;BME280;30159;49.316;8.558;2022-12-20T03:52:23;100814.31;;;6.07;100.00
44457;BME280;30159;49.316;8.558;2022-12-20T03:54:49;100810.34;;;6.10;100.00
44457;BME280;30159;49.316;8.558;2022-12-20T03:57:16;100794.03;;;6.11;100.00
44457;BME280;30159;49.316;8.558;2022-12-20T03:59:42;100801.97;;;6.06;100.00
44457;BME280;30159;49.316;8.558;2022-12-20T04:02:09;100799.53;;;5.93;100.00
44457;BME280;30159;49.316;8.558;2022-12-20T04:04:35;100791.66;;;5.86;100.00
44457;BME280;30159;49.316;8.558;2022-12-20T04:07:02;100789.31;;;5.90;100.00
44457;BME280;30159;49.316;8.558;2022-12-20T04:09:30;100776.22;;;5.77;100.00
44457;BME280;30159;49.316;8.558;2022-12-20T04:11:56;100792.84;;;5.79;100.00
44457;BME280;30159;49.316;8.558;2022-12-20T04:14:23;100782.59;;;5.87;100.00
44457;BME280;30159;49.316;8.558;2022-12-20T04:16:49;100781.53;;;5.88;100.00
44457;BME280;30159;49.316;8.558;2022-12-20T04:19:16;100779.31;;;5.85;100.00
44457;BME280;30159;49.316;8.558;2022-12-20T04:21:42;100779.66;;;5.89;100.00
44457;BME280;30159;49.316;8.558;2022-12-20T04:24:09;100781.28;;;5.90;100.00
44457;BME280;30159;49.316;8.558;2022-12-20T04:26:37;100772.09;;;5.98;100.00
44457;BME280;30159;49.316;8.558;2022-12-20T04:29:03;100769.72;;;6.01;100.00
44457;BME280;30159;49.316;8.558;2022-12-20T04:31:30;100756.59;;;6.00;100.00
44457;BME280;30159;49.316;8.558;2022-12-20T04:33:56;100750.63;;;6.09;100.00
44457;BME280;30159;49.316;8.558;2022-12-20T04:36:23;100764.56;;;6.11;100.00
44457;BME280;30159;49.316;8.558;2022-12-20T04:38:50;100753.66;;;6.01;100.00
44457;BME280;30159;49.316;8.558;2022-12-20T04:41:17;100767.41;;;5.93;100.00
44457;BME280;30159;49.316;8.558;2022-12-20T04:43:50;100769.06;;;5.94;100.00
44457;BME280;30159;49.316;8.558;2022-12-20T04:46:17;100763.91;;;6.04;100.00
44457;BME280;30159;49.316;8.558;2022-12-20T04:48:44;100762.13;;;6.10;100.00
44457;BME280;30159;49.316;8.558;2022-12-20T04:51:10;100765.22;;;6.02;100.00
44457;BME280;30159;49.316;8.558;2022-12-20T04:53:37;100762.47;;;6.14;100.00
44457;BME280;30159;49.316;8.558;2022-12-20T04:56:13;100760.91;;;6.18;100.00
44457;BME280;30159;49.316;8.558;2022-12-20T04:58:40;100749.31;;;6.12;100.00
44457;BME280;30159;49.316;8.558;2022-12-20T05:01:07;100744.63;;;6.19;100.00
44457;BME280;30159;49.316;8.558;2022-12-20T05:03:34;100740.56;;;6.17;100.00
44457;BME280;30159;49.316;8.558;2022-12-20T05:06:01;100749.19;;;6.36;100.00
44457;BME280;30159;49.316;8.558;2022-12-20T05:08:27;100754.63;;;6.41;100.00
44457;BME280;30159;49.316;8.558;2022-12-20T05:10:54;100764.13;;;6.48;100.00
44457;BME280;30159;49.316;8.558;2022-12-20T05:13:20;100765.09;;;6.42;100.00
44457;BME280;30159;49.316;8.558;2022-12-20T05:15:50;100754.81;;;6.34;100.00
44457;BME280;30159;49.316;8.558;2022-12-20T05:18:19;100766.16;;;6.41;100.00
44457;BME280;30159;49.316;8.558;2022-12-20T05:20:45;100774.09;;;6.36;100.00
44457;BME280;30159;49.316;8.558;2022-12-20T05:23:12;100775.00;;;6.42;100.00
44457;BME280;30159;49.316;8.558;2022-12-20T05:25:57;100757.38;;;6.29;100.00
44457;BME280;30159;49.316;8.558;2022-12-20T05:28:41;100770.63;;;6.36;100.00
44457;BME280;30159;49.316;8.558;2022-12-20T05:31:08;100756.34;;;6.30;100.00
44457;BME280;30159;49.316;8.558;2022-12-20T05:33:35;100749.16;;;6.19;100.00
44457;BME280;30159;49.316;8.558;2022-12-20T05:36:02;100761.03;;;6.23;100.00
44457;BME280;30159;49.316;8.558;2022-12-20T05:38:29;100755.31;;;6.19;100.00
44457;BME280;30159;49.316;8.558;2022-12-20T05:40:55;100756.78;;;6.27;100.00
44457;BME280;30159;49.316;8.558;2022-12-20T05:43:22;100767.13;;;6.35;100.00
44457;BME280;30159;49.316;8.558;2022-12-20T05:45:51;100771.09;;;6.32;100.00
44457;BME280;30159;49.316;8.558;2022-12-20T05:48:18;100770.88;;;6.34;100.00
44457;BME280;30159;49.316;8.558;2022-12-20T05:50:47;100762.25;;;6.32;100.00
44457;BME280;30159;49.316;8.558;2022-12-20T05:53:15;100756.50;;;6.40;100.00
44457;BME280;30159;49.316;8.558;2022-12-20T05:55:43;100751.31;;;6.50;100.00
44457;BME280;30159;49.316;8.558;2022-12-20T05:58:10;100756.69;;;6.50;100.00
44457;BME280;30159;49.316;8.558;2022-12-20T06:00:38;100763.66;;;6.51;100.00
44457;BME280;30159;49.316;8.558;2022-12-20T06:03:05;100764.72;;;6.50;100.00
44457;BME280;30159;49.316;8.558;2022-12-20T06:05:34;100751.22;;;6.45;100.00
44457;BME280;30159;49.316;8.558;2022-12-20T06:08:02;100749.53;;;6.39;100.00
44457;BME280;30159;49.316;8.558;2022-12-20T06:10:29;100750.31;;;6.40;100.00
44457;BME280;30159;49.316;8.558;2022-12-20T06:12:55;100749.53;;;6.39;100.00
44457;BME280;30159;49.316;8.558;2022-12-20T06:15:22;100743.41;;;6.27;100.00
44457;BME280;30159;49.316;8.558;2022-12-20T06:17:48;100751.94;;;6.24;100.00
44457;BME280;30159;49.316;8.558;2022-12-20T06:20:15;100747.72;;;6.28;100.00
44457;BME280;30159;49.316;8.558;2022-12-20T06:22:41;100741.56;;;6.27;100.00
44457;BME280;30159;49.316;8.558;2022-12-20T06:25:10;100739.75;;;6.33;100.00
44457;BME280;30159;49.316;8.558;2022-12-20T06:27:37;100738.97;;;6.32;100.00
44457;BME280;30159;49.316;8.558;2022-12-20T06:30:04;100729.84;;;6.33;100.00
44457;BME280;30159;49.316;8.558;2022-12-20T06:32:31;100718.34;;;6.33;100.00
44457;BME280;30159;49.316;8.558;2022-12-20T06:34:57;100721.50;;;6.30;100.00
44457;BME280;30159;49.316;8.558;2022-12-20T06:37:24;100726.38;;;6.33;100.00
44457;BME280;30159;49.316;8.558;2022-12-20T06:39:51;100726.94;;;6.35;100.00
44457;BME280;30159;49.316;8.558;2022-12-20T06:42:18;100733.38;;;6.34;100.00
44457;BME280;30159;49.316;8.558;2022-12-20T06:44:45;100728.41;;;6.43;100.00
44457;BME280;30159;49.316;8.558;2022-12-20T06:47:11;100722.38;;;6.52;100.00
44457;BME280;30159;49.316;8.558;2022-12-20T06:49:38;100634.91;;;6.07;100.00
44457;BME280;30159;49.316;8.558;2022-12-20T06:52:05;100719.31;;;6.44;100.00
44457;BME280;30159;49.316;8.558;2022-12-20T06:54:32;100709.25;;;6.51;100.00
44457;BME280;30159;49.316;8.558;2022-12-20T06:56:59;100702.00;;;6.51;100.00
44457;BME280;30159;49.316;8.558;2022-12-20T06:59:27;100700.31;;;6.45;100.00
44457;BME280;30159;49.316;8.558;2022-12-20T07:01:53;100700.94;;;6.52;100.00
44457;BME280;30159;49.316;8.558;2022-12-20T07:04:20;100710.84;;;6.52;100.00
44457;BME280;30159;49.316;8.558;2022-12-20T07:06:46;100706.00;;;6.49;100.00
44457;BME280;30159;49.316;8.558;2022-12-20T07:09:13;100698.69;;;6.44;100.00
44457;BME280;30159;49.316;8.558;2022-12-20T07:11:39;100694.63;;;6.42;100.00
44457;BME280;30159;49.316;8.558;2022-12-20T07:14:07;100695.09;;;6.39;100.00
44457;BME280;30159;49.316;8.558;2022-12-20T07:16:36;100692.34;;;6.33;100.00
44457;BME280;30159;49.316;8.558;2022-12-20T07:19:03;100677.28;;;6.27;100.00
44457;BME280;30159;49.316;8.558;2022-12-20T07:21:29;100695.88;;;6.34;100.00
44457;BME280;30159;49.316;8.558;2022-12-20T07:23:58;100692.19;;;6.23;100.00
44457;BME280;30159;49.316;8.558;2022-12-20T07:26:27;100701.47;;;6.32;100.00
44457;BME280;30159;49.316;8.558;2022-12-20T07:28:53;100702.34;;;6.38;100.00
44457;BME280;30159;49.316;8.558;2022-12-20T07:31:20;100709.00;;;6.52;100.00
44457;BME280;30159;49.316;8.558;2022-12-20T07:33:51;100714.44;;;6.58;100.00
44457;BME280;30159;49.316;8.558;2022-12-20T07:36:18;100683.00;;;6.36;100.00
44457;BME280;30159;49.316;8.558;2022-12-20T07:38:44;100700.97;;;6.69;100.00
44457;BME280;30159;49.316;8.558;2022-12-20T07:41:13;100703.88;;;6.68;100.00
44457;BME280;30159;49.316;8.558;2022-12-20T07:43:40;100699.47;;;6.62;100.00
44457;BME280;30159;49.316;8.558;2022-12-20T07:46:07;100704.06;;;6.44;100.00
44457;BME280;30159;49.316;8.558;2022-12-20T07:48:34;100712.16;;;6.49;100.00
44457;BME280;30159;49.316;8.558;2022-12-20T07:51:05;100702.69;;;6.42;100.00
44457;BME280;30159;49.316;8.558;2022-12-20T07:53:34;100701.94;;;6.46;100.00
44457;BME280;30159;49.316;8.558;2022-12-20T07:56:04;100665.91;;;6.37;100.00
44457;BME280;30159;49.316;8.558;2022-12-20T07:58:33;100691.13;;;6.58;100.00
44457;BME280;30159;49.316;8.558;2022-12-20T08:01:01;100687.44;;;6.64;100.00
44457;BME280;30159;49.316;8.558;2022-12-20T08:03:31;100691.53;;;6.67;100.00
44457;BME280;30159;49.316;8.558;2022-12-20T08:06:04;100686.81;;;6.57;100.00
44457;BME280;30159;49.316;8.558;2022-12-20T08:08:33;100677.91;;;6.51;100.00
44457;BME280;30159;49.316;8.558;2022-12-20T08:11:02;100687.44;;;6.64;100.00
44457;BME280;30159;49.316;8.558;2022-12-20T08:13:30;100684.88;;;6.69;100.00
44457;BME280;30159;49.316;8.558;2022-12-20T08:15:58;100662.69;;;6.57;100.00
44457;BME280;30159;49.316;8.558;2022-12-20T08:18:25;100682.56;;;6.78;100.00
44457;BME280;30159;49.316;8.558;2022-12-20T08:20:51;100673.72;;;6.78;100.00
44457;BME280;30159;49.316;8.558;2022-12-20T08:23:19;100666.63;;;6.88;100.00
44457;BME280;30159;49.316;8.558;2022-12-20T08:25:45;100677.47;;;6.99;100.00
44457;BME280;30159;49.316;8.558;2022-12-20T08:28:12;100662.34;;;7.09;100.00
44457;BME280;30159;49.316;8.558;2022-12-20T08:30:39;100666.25;;;7.24;100.00
44457;BME280;30159;49.316;8.558;2022-12-20T08:33:05;100629.25;;;7.04;100.00
44457;BME280;30159;49.316;8.558;2022-12-20T08:35:34;100644.06;;;7.28;100.00
44457;BME280;30159;49.316;8.558;2022-12-20T08:38:01;100651.16;;;7.39;100.00
44457;BME280;30159;49.316;8.558;2022-12-20T08:40:29;100663.53;;;7.46;100.00
44457;BME280;30159;49.316;8.558;2022-12-20T08:42:57;100655.00;;;7.49;100.00
44457;BME280;30159;49.316;8.558;2022-12-20T08:45:23;100665.88;;;7.64;100.00
44457;BME280;30159;49.316;8.558;2022-12-20T08:47:50;100667.53;;;7.65;100.00
44457;BME280;30159;49.316;8.558;2022-12-20T08:50:16;100656.22;;;7.63;100.00
44457;BME280;30159;49.316;8.558;2022-12-20T08:52:43;100675.03;;;7.63;100.00
44457;BME280;30159;49.316;8.558;2022-12-20T08:55:10;100661.34;;;7.65;100.00
44457;BME280;30159;49.316;8.558;2022-12-20T08:57:38;100657.91;;;7.69;100.00
44457;BME280;30159;49.316;8.558;2022-12-20T09:00:05;100652.38;;;7.81;100.00
44457;BME280;30159;49.316;8.558;2022-12-20T09:02:33;100608.44;;;7.60;100.00
44457;BME280;30159;49.316;8.558;2022-12-20T09:05:01;100641.41;;;7.88;100.00
44457;BME280;30159;49.316;8.558;2022-12-20T09:07:29;100641.97;;;7.90;100.00
44457;BME280;30159;49.316;8.558;2022-12-20T09:09:55;100640.41;;;7.94;100.00
44457;BME280;30159;49.316;8.558;2022-12-20T09:12:22;100605.06;;;7.75;100.00
44457;BME280;30159;49.316;8.558;2022-12-20T09:14:50;100658.03;;;8.12;100.00
44457;BME280;30159;49.316;8.558;2022-12-20T09:17:16;100658.22;;;8.05;100.00
44457;BME280;30159;49.316;8.558;2022-12-20T09:19:43;100656.72;;;8.19;100.00
44457;BME280;30159;49.316;8.558;2022-12-20T09:22:09;100650.31;;;8.20;100.00
44457;BME280;30159;49.316;8.558;2022-12-20T09:24:36;100647.88;;;8.19;100.00
44457;BME280;30159;49.316;8.558;2022-12-20T09:27:03;100639.06;;;8.29;100.00
44457;BME280;30159;49.316;8.558;2022-12-20T09:29:29;100649.34;;;8.37;100.00
44457;BME280;30159;49.316;8.558;2022-12-20T09:31:57;100650.25;;;8.48;100.00
44457;BME280;30159;49.316;8.558;2022-12-20T09:34:24;100645.19;;;8.56;99.22
44457;BME280;30159;49.316;8.558;2022-12-20T09:36:50;100636.09;;;8.62;98.54
44457;BME280;30159;49.316;8.558;2022-12-20T09:39:17;100643.63;;;8.60;98.43
44457;BME280;30159;49.316;8.558;2022-12-20T09:41:43;100636.09;;;8.62;97.96
44457;BME280;30159;49.316;8.558;2022-12-20T09:44:13;100636.16;;;8.73;97.14
44457;BME280;30159;49.316;8.558;2022-12-20T09:46:41;100644.75;;;8.75;96.59
44457;BME280;30159;49.316;8.558;2022-12-20T09:49:14;100596.47;;;8.10;98.36
44457;BME280;30159;49.316;8.558;2022-12-20T09:51:53;100650.47;;;8.41;99.73
44457;BME280;30159;49.316;8.558;2022-12-20T09:54:31;100644.06;;;8.47;99.47
44457;BME280;30159;49.316;8.558;2022-12-20T09:57:05;100536.47;;;7.94;98.61
44457;BME280;30159;49.316;8.558;2022-12-20T09:59:39;100640.97;;;8.71;98.55
44457;BME280;30159;49.316;8.558;2022-12-20T10:02:08;100635.06;;;8.74;98.07
44457;BME280;30159;49.316;8.558;2022-12-20T10:04:38;100636.69;;;8.75;97.20
44457;BME280;30159;49.316;8.558;2022-12-20T10:07:18;100624.09;;;8.85;97.59
44457;BME280;30159;49.316;8.558;2022-12-20T10:12:43;100612.53;;;8.90;96.36
44457;BME280;30159;49.316;8.558;2022-12-20T10:15:20;100616.88;;;8.96;96.59
44457;BME280;30159;49.316;8.558;2022-12-20T10:18:16;100615.31;;;9.05;96.03
44457;BME280;30159;49.316;8.558;2022-12-20T10:20:56;100603.97;;;8.98;95.52
44457;BME280;30159;49.316;8.558;2022-12-20T10:23:27;100584.97;;;8.57;96.92
44457;BME280;30159;49.316;8.558;2022-12-20T10:25:56;100600.59;;;8.60;96.91
44457;BME280;30159;49.316;8.558;2022-12-20T10:28:27;100606.25;;;8.64;97.38
44457;BME280;30159;49.316;8.558;2022-12-20T10:30:58;100622.72;;;8.83;97.37
44457;BME280;30159;49.316;8.558;2022-12-20T10:33:26;100586.63;;;8.69;97.32
44457;BME280;30159;49.316;8.558;2022-12-20T10:35:54;100621.50;;;9.11;96.55
44457;BME280;30159;49.316;8.558;2022-12-20T10:38:21;100623.22;;;9.33;95.81
44457;BME280;30159;49.316;8.558;2022-12-20T10:40:59;100621.31;;;9.38;94.01
44457;BME280;30159;49.316;8.558;2022-12-20T10:43:39;100613.53;;;9.47;94.27
44457;BME280;30159;49.316;8.558;2022-12-20T10:46:07;100600.88;;;9.53;93.94
44457;BME280;30159;49.316;8.558;2022-12-20T10:48:38;100532.75;;;9.16;93.37
44457;BME280;30159;49.316;8.558;2022-12-20T10:51:14;100594.16;;;9.50;92.17
44457;BME280;30159;49.316;8.558;2022-12-20T10:53:53;100593.06;;;9.46;92.26
44457;BME280;30159;49.316;8.558;2022-12-20T10:56:22;100587.38;;;9.17;93.84
44457;BME280;30159;49.316;8.558;2022-12-20T10:58:54;100595.94;;;9.03;94.52
44457;BME280;30159;49.316;8.558;2022-12-20T11:01:22;100582.44;;;8.93;96.21
44457;BME280;30159;49.316;8.558;2022-12-20T11:03:52;100572.75;;;8.92;96.23
44457;BME280;30159;49.316;8.558;2022-12-20T11:06:23;100564.69;;;8.97;96.58
44457;BME280;30159;49.316;8.558;2022-12-20T11:08:50;100564.19;;;9.11;95.77
44457;BME280;30159;49.316;8.558;2022-12-20T11:11:18;100546.94;;;8.91;95.30
44457;BME280;30159;49.316;8.558;2022-12-20T11:13:46;100532.06;;;8.68;97.58
44457;BME280;30159;49.316;8.558;2022-12-20T11:16:22;100549.06;;;8.84;97.50
44457;BME280;30159;49.316;8.558;2022-12-20T11:18:53;100550.41;;;8.86;97.90
44457;BME280;30159;49.316;8.558;2022-12-20T11:21:29;100544.72;;;8.78;98.06
44457;BME280;30159;49.316;8.558;2022-12-20T11:24:04;100531.28;;;8.83;98.63
44457;BME280;30159;49.316;8.558;2022-12-20T11:26:45;100536.19;;;9.01;98.43
44457;BME280;30159;49.316;8.558;2022-12-20T11:29:26;100532.19;;;9.19;96.18
44457;BME280;30159;49.316;8.558;2022-12-20T11:32:04;100534.94;;;9.45;96.70
44457;BME280;30159;49.316;8.558;2022-12-20T11:34:38;100516.88;;;9.71;93.48
44457;BME280;30159;49.316;8.558;2022-12-20T11:37:22;100509.59;;;9.87;93.46
44457;BME280;30159;49.316;8.558;2022-12-20T11:40:11;100502.28;;;10.03;92.41
44457;BME280;30159;49.316;8.558;2022-12-20T11:42:57;100501.25;;;9.94;90.99
44457;BME280;30159;49.316;8.558;2022-12-20T11:45:30;100513.91;;;9.93;91.42
44457;BME280;30159;49.316;8.558;2022-12-20T11:48:20;100527.34;;;10.03;91.57
44457;BME280;30159;49.316;8.558;2022-12-20T11:51:00;100486.72;;;9.79;91.92
44457;BME280;30159;49.316;8.558;2022-12-20T11:53:34;100516.88;;;9.91;91.66
44457;BME280;30159;49.316;8.558;2022-12-20T11:56:06;100507.69;;;9.92;92.50
44457;BME280;30159;49.316;8.558;2022-12-20T11:58:45;100503.41;;;9.86;92.47
44457;BME280;30159;49.316;8.558;2022-12-20T12:01:15;100450.66;;;9.39;92.40
44457;BME280;30159;49.316;8.558;2022-12-20T12:03:46;100418.91;;;9.21;93.23
44457;BME280;30159;49.316;8.558;2022-12-20T12:06:17;100489.41;;;9.64;93.56
44457;BME280;30159;49.316;8.558;2022-12-20T12:08:50;100485.09;;;9.58;95.13
44457;BME280;30159;49.316;8.558;2022-12-20T12:11:21;100470.56;;;9.64;94.16
44457;BME280;30159;49.316;8.558;2022-12-20T12:13:50;100471.88;;;9.87;93.65
44457;BME280;30159;49.316;8.558;2022-12-20T12:16:19;100462.97;;;9.97;93.22
44457;BME280;30159;49.316;8.558;2022-12-20T12:18:48;100463.25;;;9.90;92.80
44457;BME280;30159;49.316;8.558;2022-12-20T12:21:19;100470.00;;;9.82;92.35
44457;BME280;30159;49.316;8.558;2022-12-20T12:23:59;100463.53;;;9.88;92.92
44457;BME280;30159;49.316;8.558;2022-12-20T12:26:29;100465.94;;;9.85;94.07
44457;BME280;30159;49.316;8.558;2022-12-20T12:28:59;100470.56;;;9.69;93.91
44457;BME280;30159;49.316;8.558;2022-12-20T12:31:31;100467.84;;;9.84;93.74
44457;BME280;30159;49.316;8.558;2022-12-20T12:34:07;100480.22;;;9.96;92.54
44457;BME280;30159;49.316;8.558;2022-12-20T12:36:51;100452.69;;;10.04;92.32
44457;BME280;30159;49.316;8.558;2022-12-20T12:42:50;100440.91;;;9.74;93.76
44457;BME280;30159;49.316;8.558;2022-12-20T12:45:25;100422.28;;;9.88;93.68
44457;BME280;30159;49.316;8.558;2022-12-20T12:47:55;100413.69;;;9.91;93.25
44457;BME280;30159;49.316;8.558;2022-12-20T12:50:26;100371.72;;;9.64;92.95
44457;BME280;30159;49.316;8.558;2022-12-20T12:52:56;100409.34;;;9.90;92.97
44457;BME280;30159;49.316;8.558;2022-12-20T12:55:37;100410.16;;;9.96;93.56
44457;BME280;30159;49.316;8.558;2022-12-20T12:58:32;100412.91;;;9.80;94.18
44457;BME280;30159;49.316;8.558;2022-12-20T13:01:00;100414.50;;;9.81;94.86
44457;BME280;30159;49.316;8.558;2022-12-20T13:07:01;100410.78;;;9.62;95.63
44457;BME280;30159;49.316;8.558;2022-12-20T13:09:39;100406.19;;;9.73;96.89
44457;BME280;30159;49.316;8.558;2022-12-20T13:16:02;100392.69;;;9.83;94.75
44457;BME280;30159;49.316;8.558;2022-12-20T13:18:30;100380.84;;;9.84;94.82
44457;BME280;30159;49.316;8.558;2022-12-20T13:21:31;100382.72;;;9.83;95.50